createdAt,value
2023-05-11T00:00:05.911Z,23.49
2023-05-11T00:01:05.921Z,23.49
2023-05-11T00:02:06.013Z,23.49
2023-05-11T00:03:05.975Z,23.50
2023-05-11T00:04:06.008Z,23.49
2023-05-11T00:05:05.875Z,23.49
2023-05-11T00:06:05.860Z,23.49
2023-05-11T00:07:05.837Z,23.48
2023-05-11T00:08:05.857Z,23.49
2023-05-11T00:09:05.833Z,23.49
2023-05-11T00:10:05.834Z,23.49
2023-05-11T00:11:05.822Z,23.48
2023-05-11T00:12:05.833Z,23.49
2023-05-11T00:13:05.840Z,23.48
2023-05-11T00:14:05.802Z,23.49
2023-05-11T00:15:05.811Z,23.48
2023-05-11T00:16:05.833Z,23.49
2023-05-11T00:17:05.774Z,23.48
2023-05-11T00:18:05.844Z,23.48
2023-05-11T00:19:05.821Z,23.49
2023-05-11T00:20:05.759Z,23.48
2023-05-11T00:21:05.789Z,23.49
2023-05-11T00:22:05.742Z,23.48
2023-05-11T00:23:05.761Z,23.48
2023-05-11T00:24:05.728Z,23.48
2023-05-11T00:25:05.725Z,23.47
2023-05-11T00:26:05.756Z,23.48
2023-05-11T00:27:05.732Z,23.47
2023-05-11T00:28:05.707Z,23.48
2023-05-11T00:29:05.698Z,23.47
2023-05-11T00:30:05.701Z,23.47
2023-05-11T00:31:05.776Z,23.47
2023-05-11T00:32:05.683Z,23.47
2023-05-11T00:33:05.856Z,23.46
2023-05-11T00:34:05.673Z,23.47
2023-05-11T00:35:05.676Z,23.47
2023-05-11T00:36:05.656Z,23.47
2023-05-11T00:37:05.641Z,23.47
2023-05-11T00:38:05.637Z,23.47
2023-05-11T00:39:05.644Z,23.46
2023-05-11T00:40:05.615Z,23.47
2023-05-11T00:41:05.638Z,23.46
2023-05-11T00:42:05.620Z,23.46
2023-05-11T00:43:05.631Z,23.46
2023-05-11T00:44:05.590Z,23.46
2023-05-11T00:45:05.609Z,23.46
2023-05-11T00:46:05.589Z,23.46
2023-05-11T00:47:05.717Z,23.45
2023-05-11T00:48:05.630Z,23.45
2023-05-11T00:49:05.582Z,23.46
2023-05-11T00:50:05.540Z,23.46
2023-05-11T00:51:05.555Z,23.46
2023-05-11T00:52:05.529Z,23.45
2023-05-11T00:53:05.523Z,23.45
2023-05-11T00:54:05.550Z,23.45
2023-05-11T00:55:05.535Z,23.44
2023-05-11T00:56:05.532Z,23.44
2023-05-11T00:57:05.499Z,23.44
2023-05-11T00:58:05.500Z,23.44
2023-05-11T00:59:05.577Z,23.43
2023-05-11T01:00:05.476Z,23.44
2023-05-11T01:01:05.506Z,23.43
2023-05-11T01:02:05.561Z,23.44
2023-05-11T01:03:05.491Z,23.44
2023-05-11T01:04:05.450Z,23.44
2023-05-11T01:05:05.481Z,23.44
2023-05-11T01:06:05.511Z,23.43
2023-05-11T01:07:05.461Z,23.43
2023-05-11T01:08:05.434Z,23.43
2023-05-11T01:09:05.444Z,23.43
2023-05-11T01:10:05.452Z,23.44
2023-05-11T01:11:05.457Z,23.43
2023-05-11T01:12:05.406Z,23.43
2023-05-11T01:13:05.427Z,23.43
2023-05-11T01:14:05.387Z,23.43
2023-05-11T01:15:05.387Z,23.43
2023-05-11T01:16:05.393Z,23.43
2023-05-11T01:17:05.406Z,23.44
2023-05-11T01:18:05.442Z,23.43
2023-05-11T01:19:05.445Z,23.42
2023-05-11T01:20:05.345Z,23.42
2023-05-11T01:21:05.378Z,23.42
2023-05-11T01:22:05.333Z,23.42
2023-05-11T01:23:05.333Z,23.42
2023-05-11T01:24:05.315Z,23.42
2023-05-11T01:25:05.321Z,23.42
2023-05-11T01:26:05.300Z,23.42
2023-05-11T01:27:05.307Z,23.42
2023-05-11T01:28:05.284Z,23.42
2023-05-11T01:29:05.278Z,23.42
2023-05-11T01:30:05.288Z,23.42
2023-05-11T01:31:05.283Z,23.42
2023-05-11T01:32:05.317Z,23.41
2023-05-11T01:33:05.288Z,23.41
2023-05-11T01:34:05.274Z,23.41
2023-05-11T01:35:05.258Z,23.41
2023-05-11T01:36:05.254Z,23.41
2023-05-11T01:37:05.243Z,23.40
2023-05-11T01:38:05.234Z,23.41
2023-05-11T01:39:05.233Z,23.40
2023-05-11T01:40:05.279Z,23.40
2023-05-11T01:41:05.216Z,23.41
2023-05-11T01:42:05.202Z,23.41
2023-05-11T01:43:05.233Z,23.41
2023-05-11T01:44:05.216Z,23.40
2023-05-11T01:45:05.205Z,23.40
2023-05-11T01:46:05.253Z,23.40
2023-05-11T01:47:05.162Z,23.40
2023-05-11T01:48:05.253Z,23.40
2023-05-11T01:49:05.165Z,23.39
2023-05-11T01:50:05.155Z,23.39
2023-05-11T01:51:05.146Z,23.39
2023-05-11T01:52:05.143Z,23.39
2023-05-11T01:53:05.131Z,23.39
2023-05-11T01:54:05.140Z,23.39
2023-05-11T01:55:05.115Z,23.39
2023-05-11T01:56:05.111Z,23.40
2023-05-11T01:57:05.109Z,23.39
2023-05-11T01:58:05.099Z,23.39
2023-05-11T01:59:05.089Z,23.39
2023-05-11T02:00:05.083Z,23.38
2023-05-11T02:01:05.116Z,23.39
2023-05-11T02:02:05.072Z,23.38
2023-05-11T02:03:05.146Z,23.38
2023-05-11T02:04:05.061Z,23.38
2023-05-11T02:05:05.080Z,23.38
2023-05-11T02:06:05.052Z,23.38
2023-05-11T02:07:05.037Z,23.38
2023-05-11T02:08:05.021Z,23.38
2023-05-11T02:09:05.024Z,23.38
2023-05-11T02:10:05.015Z,23.37
2023-05-11T02:11:05.031Z,23.37
2023-05-11T02:12:04.998Z,23.38
2023-05-11T02:13:04.986Z,23.37
2023-05-11T02:14:04.995Z,23.37
2023-05-11T02:15:04.970Z,23.37
2023-05-11T02:16:05.032Z,23.36
2023-05-11T02:17:04.969Z,23.37
2023-05-11T02:18:04.983Z,23.36
2023-05-11T02:19:04.986Z,23.37
2023-05-11T02:20:04.966Z,23.36
2023-05-11T02:21:04.947Z,23.36
2023-05-11T02:22:04.924Z,23.37
2023-05-11T02:23:04.909Z,23.36
2023-05-11T02:24:04.909Z,23.36
2023-05-11T02:25:04.910Z,23.36
2023-05-11T02:26:04.905Z,23.36
2023-05-11T02:27:04.883Z,23.36
2023-05-11T02:28:04.880Z,23.36
2023-05-11T02:29:04.880Z,23.36
2023-05-11T02:30:04.882Z,23.36
2023-05-11T02:31:04.883Z,23.36
2023-05-11T02:32:04.858Z,23.36
2023-05-11T02:33:04.901Z,23.35
2023-05-11T02:34:04.848Z,23.35
2023-05-11T02:35:04.829Z,23.36
2023-05-11T02:36:04.832Z,23.35
2023-05-11T02:37:04.816Z,23.35
2023-05-11T02:38:04.833Z,23.35
2023-05-11T02:39:04.816Z,23.35
2023-05-11T02:40:04.803Z,23.35
2023-05-11T02:41:04.797Z,23.34
2023-05-11T02:42:04.792Z,23.35
2023-05-11T02:43:04.785Z,23.35
2023-05-11T02:44:04.776Z,23.35
2023-05-11T02:45:04.772Z,23.34
2023-05-11T02:46:04.749Z,23.35
2023-05-11T02:47:04.787Z,23.34
2023-05-11T02:48:04.769Z,23.34
2023-05-11T02:49:04.737Z,23.33
2023-05-11T02:50:04.745Z,23.33
2023-05-11T02:51:04.738Z,23.33
2023-05-11T02:52:04.751Z,23.33
2023-05-11T02:53:04.710Z,23.33
2023-05-11T02:54:04.725Z,23.33
2023-05-11T02:55:04.711Z,23.33
2023-05-11T02:56:04.692Z,23.33
2023-05-11T02:57:04.685Z,23.33
2023-05-11T02:58:04.686Z,23.33
2023-05-11T02:59:04.701Z,23.33
2023-05-11T03:00:04.666Z,23.33
2023-05-11T03:01:04.796Z,23.32
2023-05-11T03:02:04.793Z,23.32
2023-05-11T03:03:04.741Z,23.33
2023-05-11T03:04:04.652Z,23.32
2023-05-11T03:05:04.658Z,23.32
2023-05-11T03:06:04.628Z,23.31
2023-05-11T03:07:04.624Z,23.32
2023-05-11T03:08:04.623Z,23.32
2023-05-11T03:09:04.628Z,23.32
2023-05-11T03:10:04.636Z,23.32
2023-05-11T03:11:04.648Z,23.32
2023-05-11T03:12:04.674Z,23.31
2023-05-11T03:13:04.723Z,23.31
2023-05-11T03:14:04.687Z,23.30
2023-05-11T03:15:04.740Z,23.31
2023-05-11T03:16:04.720Z,23.31
2023-05-11T03:17:04.795Z,23.31
2023-05-11T03:18:04.822Z,23.30
2023-05-11T03:19:04.785Z,23.31
2023-05-11T03:20:04.776Z,23.31
2023-05-11T03:21:04.791Z,23.31
2023-05-11T03:22:04.791Z,23.32
2023-05-11T03:23:04.810Z,23.31
2023-05-11T03:24:04.827Z,23.31
2023-05-11T03:25:04.849Z,23.31
2023-05-11T03:26:04.841Z,23.31
2023-05-11T03:27:04.848Z,23.31
2023-05-11T03:28:04.883Z,23.31
2023-05-11T03:29:04.899Z,23.31
2023-05-11T03:30:04.906Z,23.30
2023-05-11T03:31:04.887Z,23.30
2023-05-11T03:32:04.955Z,23.30
2023-05-11T03:33:04.971Z,23.31
2023-05-11T03:34:04.912Z,23.30
2023-05-11T03:35:04.957Z,23.30
2023-05-11T03:36:04.964Z,23.30
2023-05-11T03:37:04.959Z,23.30
2023-05-11T03:38:04.973Z,23.30
2023-05-11T03:39:04.998Z,23.29
2023-05-11T03:40:04.997Z,23.29
2023-05-11T03:41:04.996Z,23.30
2023-05-11T03:42:05.035Z,23.29
2023-05-11T03:43:05.009Z,23.29
2023-05-11T03:44:05.035Z,23.30
2023-05-11T03:45:05.032Z,23.29
2023-05-11T03:46:05.079Z,23.29
2023-05-11T03:47:05.070Z,23.28
2023-05-11T03:48:05.111Z,23.28
2023-05-11T03:49:05.078Z,23.28
2023-05-11T03:50:05.089Z,23.28
2023-05-11T03:51:05.086Z,23.28
2023-05-11T03:52:05.117Z,23.28
2023-05-11T03:53:05.124Z,23.28
2023-05-11T03:54:05.126Z,23.29
2023-05-11T03:55:05.128Z,23.28
2023-05-11T03:56:05.149Z,23.29
2023-05-11T03:57:05.149Z,23.27
2023-05-11T03:58:05.163Z,23.28
2023-05-11T03:59:05.219Z,23.27
2023-05-11T04:00:05.209Z,23.27
2023-05-11T04:01:05.205Z,23.27
2023-05-11T04:02:05.228Z,23.27
2023-05-11T04:03:05.353Z,23.27
2023-05-11T04:04:05.343Z,23.26
2023-05-11T04:05:05.268Z,23.26
2023-05-11T04:06:05.273Z,23.26
2023-05-11T04:07:05.300Z,23.26
2023-05-11T04:08:05.301Z,23.26
2023-05-11T04:09:05.315Z,23.26
2023-05-11T04:10:05.335Z,23.26
2023-05-11T04:11:05.377Z,23.26
2023-05-11T04:12:05.372Z,23.26
2023-05-11T04:13:05.373Z,23.26
2023-05-11T04:14:05.417Z,23.26
2023-05-11T04:15:05.409Z,23.26
2023-05-11T04:16:05.460Z,23.26
2023-05-11T04:17:05.446Z,23.26
2023-05-11T04:18:05.484Z,23.26
2023-05-11T04:19:05.512Z,23.26
2023-05-11T04:20:05.497Z,23.25
2023-05-11T04:21:05.502Z,23.24
2023-05-11T04:22:05.522Z,23.25
2023-05-11T04:23:05.537Z,23.24
2023-05-11T04:24:05.593Z,23.25
2023-05-11T04:25:05.573Z,23.24
2023-05-11T04:26:05.598Z,23.25
2023-05-11T04:27:05.610Z,23.25
2023-05-11T04:28:05.633Z,23.24
2023-05-11T04:29:05.689Z,23.24
2023-05-11T04:30:05.673Z,23.25
2023-05-11T04:31:05.752Z,23.24
2023-05-11T04:32:05.714Z,23.24
2023-05-11T04:33:05.795Z,23.24
2023-05-11T04:34:05.751Z,23.24
2023-05-11T04:35:05.817Z,23.23
2023-05-11T04:36:05.808Z,23.24
2023-05-11T04:37:05.867Z,23.24
2023-05-11T04:38:05.858Z,23.24
2023-05-11T04:39:07.407Z,23.23
2023-05-11T04:40:05.900Z,23.23
2023-05-11T04:41:05.905Z,23.23
2023-05-11T04:42:05.931Z,23.22
2023-05-11T04:43:05.942Z,23.23
2023-05-11T04:44:05.975Z,23.23
2023-05-11T04:45:06.003Z,23.23
2023-05-11T04:46:06.014Z,23.23
2023-05-11T04:47:06.204Z,23.24
2023-05-11T04:48:06.118Z,23.23
2023-05-11T04:49:06.046Z,23.23
2023-05-11T04:50:06.103Z,23.22
2023-05-11T04:51:06.126Z,23.22
2023-05-11T04:52:06.098Z,23.23
2023-05-11T04:53:06.116Z,23.23
2023-05-11T04:54:06.140Z,23.23
2023-05-11T04:55:06.208Z,23.22
2023-05-11T04:56:06.194Z,23.23
2023-05-11T04:57:06.235Z,23.22
2023-05-11T04:58:06.235Z,23.23
2023-05-11T04:59:06.262Z,23.22
2023-05-11T05:00:06.303Z,23.22
2023-05-11T05:01:06.347Z,23.21
2023-05-11T05:02:06.328Z,23.22
2023-05-11T05:03:06.406Z,23.22
2023-05-11T05:04:06.413Z,23.22
2023-05-11T05:05:06.413Z,23.22
2023-05-11T05:06:06.413Z,23.22
2023-05-11T05:07:06.474Z,23.22
2023-05-11T05:08:06.468Z,23.21
2023-05-11T05:09:06.489Z,23.21
2023-05-11T05:10:06.520Z,23.22
2023-05-11T05:11:06.548Z,23.21
2023-05-11T05:12:06.558Z,23.21
2023-05-11T05:13:06.580Z,23.22
2023-05-11T05:14:06.615Z,23.21
2023-05-11T05:15:06.660Z,23.20
2023-05-11T05:16:06.641Z,23.21
2023-05-11T05:17:06.731Z,23.20
2023-05-11T05:18:06.721Z,23.19
2023-05-11T05:19:06.853Z,23.19
2023-05-11T05:20:06.748Z,23.19
2023-05-11T05:21:06.786Z,23.20
2023-05-11T05:22:06.801Z,23.20
2023-05-11T05:23:06.836Z,23.20
2023-05-11T05:24:06.854Z,23.19
2023-05-11T05:25:06.860Z,23.19
2023-05-11T05:26:06.912Z,23.20
2023-05-11T05:27:06.925Z,23.19
2023-05-11T05:28:06.978Z,23.19
2023-05-11T05:29:07.001Z,23.20
2023-05-11T05:30:06.998Z,23.19
2023-05-11T05:31:07.041Z,23.19
2023-05-11T05:32:07.036Z,23.19
2023-05-11T05:33:07.117Z,23.19
2023-05-11T05:34:07.139Z,23.18
2023-05-11T05:35:07.149Z,23.19
2023-05-11T05:36:07.146Z,23.20
2023-05-11T05:37:07.181Z,23.23
2023-05-11T05:38:07.187Z,23.24
2023-05-11T05:39:07.227Z,23.26
2023-05-11T05:40:07.278Z,23.28
2023-05-11T05:41:07.257Z,23.28
2023-05-11T05:42:07.332Z,23.30
2023-05-11T05:43:07.320Z,23.33
2023-05-11T05:44:07.320Z,23.36
2023-05-11T05:45:07.337Z,23.37
2023-05-11T05:46:07.358Z,23.40
2023-05-11T05:47:07.357Z,23.43
2023-05-11T05:48:07.414Z,23.44
2023-05-11T05:49:07.373Z,23.47
2023-05-11T05:50:07.456Z,23.49
2023-05-11T05:51:08.410Z,23.50
2023-05-11T05:52:07.391Z,23.53
2023-05-11T05:53:07.547Z,23.56
2023-05-11T05:54:07.420Z,23.58
2023-05-11T05:55:07.409Z,23.60
2023-05-11T05:56:07.411Z,23.62
2023-05-11T05:57:07.399Z,23.64
2023-05-11T05:58:07.384Z,23.67
2023-05-11T05:59:07.397Z,23.68
2023-05-11T06:00:07.429Z,23.71
2023-05-11T06:01:07.407Z,23.72
2023-05-11T06:02:07.398Z,23.74
2023-05-11T06:03:07.552Z,23.76
2023-05-11T06:04:07.448Z,23.78
2023-05-11T06:05:07.416Z,23.80
2023-05-11T06:06:07.389Z,23.81
2023-05-11T06:07:07.382Z,23.83
2023-05-11T06:08:11.067Z,23.85
2023-05-11T06:09:07.381Z,23.88
2023-05-11T06:10:07.384Z,23.92
2023-05-11T06:11:07.758Z,23.94
2023-05-11T06:12:07.357Z,23.98
2023-05-11T06:13:07.354Z,24.00
2023-05-11T06:14:07.349Z,24.02
2023-05-11T06:15:07.350Z,24.05
2023-05-11T06:16:07.366Z,24.07
2023-05-11T06:17:07.323Z,24.08
2023-05-11T06:18:07.370Z,24.10
2023-05-11T06:19:07.388Z,24.12
2023-05-11T06:20:07.311Z,24.14
2023-05-11T06:21:07.290Z,24.16
2023-05-11T06:22:07.296Z,24.18
2023-05-11T06:23:07.328Z,24.19
2023-05-11T06:24:07.273Z,24.22
2023-05-11T06:25:07.293Z,24.23
2023-05-11T06:26:07.268Z,24.24
2023-05-11T06:27:07.336Z,24.25
2023-05-11T06:28:07.251Z,24.26
2023-05-11T06:29:07.287Z,24.28
2023-05-11T06:30:07.250Z,24.29
2023-05-11T06:31:07.309Z,24.30
2023-05-11T06:32:07.376Z,24.32
2023-05-11T06:33:07.248Z,24.33
2023-05-11T06:34:07.258Z,24.32
2023-05-11T06:35:07.229Z,24.32
2023-05-11T06:36:07.225Z,24.33
2023-05-11T06:37:07.196Z,24.33
2023-05-11T06:38:07.218Z,24.34
2023-05-11T06:39:07.241Z,24.33
2023-05-11T06:40:07.309Z,24.33
2023-05-11T06:41:07.791Z,24.32
2023-05-11T06:42:07.408Z,24.29
2023-05-11T06:43:07.458Z,24.28
2023-05-11T06:44:07.512Z,24.26
2023-05-11T06:45:07.640Z,24.23
2023-05-11T06:46:07.657Z,24.20
2023-05-11T06:47:07.699Z,24.18
2023-05-11T06:48:07.814Z,24.16
2023-05-11T06:49:07.806Z,24.14
2023-05-11T06:50:07.879Z,24.12
2023-05-11T06:51:07.973Z,24.09
2023-05-11T06:52:07.960Z,24.08
2023-05-11T06:53:07.987Z,24.05
2023-05-11T06:54:08.008Z,24.04
2023-05-11T06:55:08.027Z,24.01
2023-05-11T06:56:08.033Z,24.00
2023-05-11T06:57:08.050Z,23.98
2023-05-11T06:58:08.037Z,23.97
2023-05-11T06:59:08.019Z,23.95
2023-05-11T07:00:08.053Z,23.94
2023-05-11T07:01:08.168Z,23.93
2023-05-11T07:02:08.050Z,23.91
2023-05-11T07:03:08.106Z,23.91
2023-05-11T07:04:08.083Z,23.89
2023-05-11T07:05:08.137Z,23.88
2023-05-11T07:06:08.019Z,23.87
2023-05-11T07:07:07.984Z,23.86
2023-05-11T07:08:08.003Z,23.85
2023-05-11T07:09:08.044Z,23.84
2023-05-11T07:10:07.986Z,23.84
2023-05-11T07:11:08.004Z,23.83
2023-05-11T07:12:07.986Z,23.82
2023-05-11T07:13:07.996Z,23.82
2023-05-11T07:14:08.064Z,23.81
2023-05-11T07:15:07.999Z,23.80
2023-05-11T07:16:08.021Z,23.79
2023-05-11T07:17:08.098Z,23.79
2023-05-11T07:18:08.064Z,23.79
2023-05-11T07:19:08.128Z,23.78
2023-05-11T07:20:08.080Z,23.77
2023-05-11T07:21:08.030Z,23.77
2023-05-11T07:22:08.071Z,23.76
2023-05-11T07:23:08.011Z,23.76
2023-05-11T07:24:08.042Z,23.76
2023-05-11T07:25:08.031Z,23.75
2023-05-11T07:26:08.049Z,23.75
2023-05-11T07:27:08.029Z,23.74
2023-05-11T07:28:08.063Z,23.74
2023-05-11T07:29:08.068Z,23.74
2023-05-11T07:30:08.042Z,23.73
2023-05-11T07:31:08.125Z,23.73
2023-05-11T07:32:08.062Z,23.71
2023-05-11T07:33:08.082Z,23.70
2023-05-11T07:34:08.048Z,23.69
2023-05-11T07:35:08.045Z,23.68
2023-05-11T07:36:08.301Z,23.68
2023-05-11T07:37:08.056Z,23.65
2023-05-11T07:38:08.072Z,23.64
2023-05-11T07:39:08.039Z,23.63
2023-05-11T07:40:08.055Z,23.59
2023-05-11T07:41:10.144Z,23.50
2023-05-11T07:42:08.055Z,23.43
2023-05-11T07:43:08.045Z,23.34
2023-05-11T07:44:08.068Z,23.27
2023-05-11T07:45:08.045Z,23.17
2023-05-11T07:46:08.348Z,23.08
2023-05-11T07:47:08.132Z,22.97
2023-05-11T07:48:08.105Z,22.88
2023-05-11T07:49:17.270Z,22.80
2023-05-11T07:50:08.988Z,22.71
2023-05-11T07:51:08.053Z,22.61
2023-05-11T07:52:07.962Z,22.56
2023-05-11T07:53:07.987Z,22.50
2023-05-11T07:54:07.949Z,22.42
2023-05-11T07:55:07.966Z,22.37
2023-05-11T07:56:07.969Z,22.28
2023-05-11T07:57:07.926Z,22.22
2023-05-11T07:58:07.927Z,22.19
2023-05-11T07:59:07.916Z,22.15
2023-05-11T08:00:08.251Z,22.08
2023-05-11T08:01:07.925Z,21.98
2023-05-11T08:02:07.958Z,21.91
2023-05-11T08:03:07.924Z,21.83
2023-05-11T08:04:07.917Z,21.74
2023-05-11T08:05:07.883Z,21.68
2023-05-11T08:06:07.948Z,21.62
2023-05-11T08:07:07.942Z,21.54
2023-05-11T08:08:07.989Z,21.49
2023-05-11T08:09:08.040Z,21.45
2023-05-11T08:10:08.121Z,21.42
2023-05-11T08:11:08.176Z,21.40
2023-05-11T08:12:08.213Z,21.36
2023-05-11T08:13:08.275Z,21.36
2023-05-11T08:14:08.353Z,21.34
2023-05-11T08:15:08.399Z,21.31
2023-05-11T08:16:08.559Z,21.29
2023-05-11T08:17:08.516Z,21.29
2023-05-11T08:18:08.612Z,21.26
2023-05-11T08:19:08.735Z,21.26
2023-05-11T08:20:08.722Z,21.25
2023-05-11T08:21:08.851Z,21.22
2023-05-11T08:22:08.830Z,21.21
2023-05-11T08:23:08.888Z,21.19
2023-05-11T08:24:08.913Z,21.21
2023-05-11T08:25:08.965Z,21.19
2023-05-11T08:26:09.004Z,21.16
2023-05-11T08:27:09.033Z,21.15
2023-05-11T08:28:09.088Z,21.15
2023-05-11T08:29:09.199Z,21.14
2023-05-11T08:30:11.467Z,21.12
2023-05-11T08:31:09.214Z,21.16
2023-05-11T08:32:09.229Z,21.23
2023-05-11T08:33:28.903Z,21.30
2023-05-11T08:34:18.171Z,21.38
2023-05-11T08:35:10.262Z,21.46
2023-05-11T08:36:09.091Z,21.56
2023-05-11T08:37:09.084Z,21.64
2023-05-11T08:38:09.073Z,21.74
2023-05-11T08:39:09.068Z,21.83
2023-05-11T08:40:09.068Z,21.92
2023-05-11T08:41:09.059Z,21.99
2023-05-11T08:42:09.050Z,22.06
2023-05-11T08:43:09.042Z,22.12
2023-05-11T08:44:09.057Z,22.17
2023-05-11T08:45:09.031Z,22.22
2023-05-11T08:46:09.093Z,22.28
2023-05-11T08:47:21.032Z,22.37
2023-05-11T08:48:10.037Z,22.39
2023-05-11T08:49:09.002Z,22.41
2023-05-11T08:50:09.017Z,22.41
2023-05-11T08:51:09.350Z,22.41
2023-05-11T08:52:09.019Z,22.41
2023-05-11T08:53:08.978Z,22.42
2023-05-11T08:54:08.960Z,22.43
2023-05-11T08:55:08.998Z,22.43
2023-05-11T08:56:08.941Z,22.43
2023-05-11T08:57:08.942Z,22.43
2023-05-11T08:58:08.973Z,22.42
2023-05-11T08:59:08.922Z,22.42
2023-05-11T09:00:08.942Z,22.43
2023-05-11T09:01:09.087Z,22.43
2023-05-11T09:02:08.909Z,22.43
2023-05-11T09:03:08.948Z,22.44
2023-05-11T09:04:08.924Z,22.45
2023-05-11T09:05:08.929Z,22.45
2023-05-11T09:06:08.919Z,22.45
2023-05-11T09:07:09.018Z,22.46
2023-05-11T09:08:08.968Z,22.47
2023-05-11T09:09:09.013Z,22.46
2023-05-11T09:10:09.732Z,22.46
2023-05-11T09:11:09.029Z,22.47
2023-05-11T09:12:09.118Z,22.47
2023-05-11T09:13:09.139Z,22.47
2023-05-11T09:14:09.227Z,22.48
2023-05-11T09:15:09.225Z,22.48
2023-05-11T09:16:23.335Z,22.49
2023-05-11T09:17:10.293Z,22.48
2023-05-11T09:18:09.249Z,22.48
2023-05-11T09:19:09.292Z,22.49
2023-05-11T09:20:09.213Z,22.49
2023-05-11T09:21:09.186Z,22.49
2023-05-11T09:22:09.217Z,22.49
2023-05-11T09:23:09.167Z,22.49
2023-05-11T09:24:09.172Z,22.50
2023-05-11T09:25:09.153Z,22.50
2023-05-11T09:26:09.157Z,22.50
2023-05-11T09:27:09.245Z,22.50
2023-05-11T09:29:10.309Z,22.51
2023-05-11T09:30:09.227Z,22.54
2023-05-11T09:31:09.278Z,22.57
2023-05-11T09:32:09.193Z,22.57
2023-05-11T09:33:09.174Z,22.56
2023-05-11T09:34:09.182Z,22.55
2023-05-11T09:35:09.158Z,22.55
2023-05-11T09:36:09.155Z,22.54
2023-05-11T09:37:09.181Z,22.53
2023-05-11T09:38:09.292Z,22.53
2023-05-11T09:39:15.545Z,22.53
2023-05-11T09:40:26.410Z,22.52
2023-05-11T09:41:10.275Z,22.51
2023-05-11T09:42:09.268Z,22.50
2023-05-11T09:43:09.255Z,22.49
2023-05-11T09:44:09.252Z,22.49
2023-05-11T09:45:09.252Z,22.49
2023-05-11T09:46:09.748Z,22.49
2023-05-11T09:47:09.261Z,22.49
2023-05-11T09:48:09.254Z,22.50
2023-05-11T09:49:09.210Z,22.52
2023-05-11T09:50:09.210Z,22.56
2023-05-11T09:51:09.247Z,22.59
2023-05-11T09:52:09.229Z,22.61
2023-05-11T09:53:09.297Z,22.64
2023-05-11T09:54:09.182Z,22.67
2023-05-11T09:55:09.178Z,22.72
2023-05-11T09:56:09.176Z,22.75
2023-05-11T09:57:09.163Z,22.77
2023-05-11T09:58:09.155Z,22.81
2023-05-11T09:59:09.154Z,22.84
2023-05-11T10:00:09.151Z,22.87
2023-05-11T10:01:09.149Z,22.90
2023-05-11T10:02:09.140Z,22.93
2023-05-11T10:03:09.164Z,22.97
2023-05-11T10:04:21.367Z,22.99
2023-05-11T10:05:10.096Z,23.02
2023-05-11T10:06:09.150Z,23.05
2023-05-11T10:07:09.083Z,23.07
2023-05-11T10:08:09.094Z,23.10
2023-05-11T10:09:09.069Z,23.12
2023-05-11T10:10:09.071Z,23.14
2023-05-11T10:11:09.055Z,23.16
2023-05-11T10:12:09.043Z,23.18
2023-05-11T10:13:09.073Z,23.18
2023-05-11T10:14:09.041Z,23.21
2023-05-11T10:15:09.053Z,23.22
2023-05-11T10:16:09.032Z,23.24
2023-05-11T10:17:09.025Z,23.25
2023-05-11T10:18:09.114Z,23.27
2023-05-11T10:19:09.073Z,23.28
2023-05-11T10:20:09.059Z,23.30
2023-05-11T10:21:09.088Z,23.30
2023-05-11T10:22:09.220Z,23.30
2023-05-11T10:23:09.120Z,23.32
2023-05-11T10:24:09.143Z,23.33
2023-05-11T10:25:09.217Z,23.33
2023-05-11T10:26:09.185Z,23.35
2023-05-11T10:27:09.211Z,23.37
2023-05-11T10:28:09.256Z,23.38
2023-05-11T10:29:09.284Z,23.40
2023-05-11T10:30:09.295Z,23.42
2023-05-11T10:31:09.313Z,23.44
2023-05-11T10:32:09.306Z,23.47
2023-05-11T10:33:09.399Z,23.48
2023-05-11T10:34:09.318Z,23.49
2023-05-11T10:35:09.292Z,23.51
2023-05-11T10:36:09.301Z,23.53
2023-05-11T10:37:09.349Z,23.54
2023-05-11T10:38:09.429Z,23.56
2023-05-11T10:39:09.360Z,23.56
2023-05-11T10:40:09.354Z,23.58
2023-05-11T10:41:09.354Z,23.57
2023-05-11T10:42:09.910Z,23.58
2023-05-11T10:43:09.421Z,23.58
2023-05-11T10:44:09.393Z,23.58
2023-05-11T10:45:09.405Z,23.59
2023-05-11T10:46:09.491Z,23.60
2023-05-11T10:47:09.461Z,23.61
2023-05-11T10:48:09.505Z,23.59
2023-05-11T10:49:09.430Z,23.60
2023-05-11T10:50:09.456Z,23.60
2023-05-11T10:51:09.438Z,23.61
2023-05-11T10:52:09.501Z,23.61
2023-05-11T10:53:09.456Z,23.61
2023-05-11T10:54:09.446Z,23.62
2023-05-11T10:55:09.456Z,23.63
2023-05-11T10:56:09.456Z,23.63
2023-05-11T10:57:09.469Z,23.64
2023-05-11T10:58:09.489Z,23.65
2023-05-11T10:59:09.486Z,23.66
2023-05-11T11:00:09.502Z,23.67
2023-05-11T11:01:09.550Z,23.66
2023-05-11T11:02:09.526Z,23.67
2023-05-11T11:03:09.478Z,23.68
2023-05-11T11:04:09.517Z,23.68
2023-05-11T11:05:09.550Z,23.68
2023-05-11T11:06:09.527Z,23.69
2023-05-11T11:07:09.496Z,23.69
2023-05-11T11:08:09.558Z,23.69
2023-05-11T11:09:09.459Z,23.70
2023-05-11T11:10:09.458Z,23.71
2023-05-11T11:11:09.496Z,23.72
2023-05-11T11:12:09.509Z,23.75
2023-05-11T11:13:09.496Z,23.77
2023-05-11T11:14:09.589Z,23.78
2023-05-11T11:15:09.481Z,23.78
2023-05-11T11:16:09.493Z,23.77
2023-05-11T11:17:09.600Z,23.76
2023-05-11T11:18:09.528Z,23.74
2023-05-11T11:19:09.532Z,23.71
2023-05-11T11:20:09.473Z,23.68
2023-05-11T11:21:09.462Z,23.66
2023-05-11T11:22:09.528Z,23.64
2023-05-11T11:23:09.485Z,23.61
2023-05-11T11:24:09.478Z,23.60
2023-05-11T11:25:09.548Z,23.57
2023-05-11T11:26:09.463Z,23.55
2023-05-11T11:27:09.555Z,23.54
2023-05-11T11:28:09.512Z,23.51
2023-05-11T11:29:09.488Z,23.51
2023-05-11T11:30:09.458Z,23.50
2023-05-11T11:31:09.485Z,23.48
2023-05-11T11:32:09.929Z,23.48
2023-05-11T11:33:09.512Z,23.47
2023-05-11T11:34:09.482Z,23.46
2023-05-11T11:35:09.479Z,23.45
2023-05-11T11:36:09.483Z,23.44
2023-05-11T11:37:09.519Z,23.43
2023-05-11T11:38:09.535Z,23.43
2023-05-11T11:39:09.526Z,23.42
2023-05-11T11:40:15.394Z,23.41
2023-05-11T11:41:10.517Z,23.40
2023-05-11T11:42:09.545Z,23.40
2023-05-11T11:43:09.514Z,23.40
2023-05-11T11:44:09.491Z,23.39
2023-05-11T11:45:09.497Z,23.39
2023-05-11T11:46:09.514Z,23.38
2023-05-11T11:47:09.512Z,23.38
2023-05-11T11:48:09.516Z,23.38
2023-05-11T11:49:09.474Z,23.37
2023-05-11T11:50:09.442Z,23.37
2023-05-11T11:51:09.435Z,23.37
2023-05-11T11:52:09.431Z,23.37
2023-05-11T11:53:09.492Z,23.36
2023-05-11T11:54:09.414Z,23.36
2023-05-11T11:55:09.410Z,23.36
2023-05-11T11:56:09.401Z,23.35
2023-05-11T11:57:09.413Z,23.35
2023-05-11T11:58:09.390Z,23.34
2023-05-11T11:59:09.388Z,23.34
2023-05-11T12:00:09.376Z,23.34
2023-05-11T12:01:09.377Z,23.34
2023-05-11T12:02:09.352Z,23.34
2023-05-11T12:03:09.425Z,23.33
2023-05-11T12:04:09.469Z,23.33
2023-05-11T12:05:09.553Z,23.32
2023-05-11T12:06:09.342Z,23.33
2023-05-11T12:07:09.323Z,23.33
2023-05-11T12:08:09.322Z,23.33
2023-05-11T12:09:09.323Z,23.32
2023-05-11T12:10:09.348Z,23.33
2023-05-11T12:11:09.292Z,23.33
2023-05-11T12:12:09.291Z,23.32
2023-05-11T12:13:09.333Z,23.32
2023-05-11T12:14:09.357Z,23.32
2023-05-11T12:15:09.332Z,23.32
2023-05-11T12:16:09.401Z,23.33
2023-05-11T12:17:09.366Z,23.32
2023-05-11T12:18:09.411Z,23.32
2023-05-11T12:19:09.439Z,23.32
2023-05-11T12:20:09.486Z,23.31
2023-05-11T12:21:09.441Z,23.32
2023-05-11T12:22:09.439Z,23.32
2023-05-11T12:23:09.451Z,23.31
2023-05-11T12:24:09.469Z,23.31
2023-05-11T12:25:09.475Z,23.32
2023-05-11T12:26:09.504Z,23.31
2023-05-11T12:27:09.533Z,23.32
2023-05-11T12:28:09.514Z,23.30
2023-05-11T12:29:09.573Z,23.31
2023-05-11T12:30:09.548Z,23.31
2023-05-11T12:31:09.555Z,23.31
2023-05-11T12:32:09.732Z,23.30
2023-05-11T12:33:09.657Z,23.29
2023-05-11T12:34:09.768Z,23.28
2023-05-11T12:35:09.628Z,23.29
2023-05-11T12:36:09.637Z,23.28
2023-05-11T12:37:09.673Z,23.28
2023-05-11T12:38:09.674Z,23.28
2023-05-11T12:39:09.703Z,23.28
2023-05-11T12:40:09.712Z,23.29
2023-05-11T12:41:09.726Z,23.28
2023-05-11T12:42:09.746Z,23.29
2023-05-11T12:43:09.784Z,23.28
2023-05-11T12:44:09.830Z,23.28
2023-05-11T12:45:09.791Z,23.28
2023-05-11T12:46:09.837Z,23.27
2023-05-11T12:47:09.841Z,23.25
2023-05-11T12:48:09.903Z,23.25
2023-05-11T12:49:09.883Z,23.23
2023-05-11T12:50:09.893Z,23.23
2023-05-11T12:51:09.915Z,23.23
2023-05-11T12:52:09.938Z,23.22
2023-05-11T12:53:09.956Z,23.19